createdAt,value
2018-09-17T00:02:22.944Z,6.83
2018-09-17T00:05:27.877Z,5.57
2018-09-17T00:08:32.827Z,5.90
2018-09-17T00:11:37.876Z,5.40
2018-09-17T00:14:42.829Z,5.30
2018-09-17T00:17:47.778Z,5.27
2018-09-17T00:20:52.875Z,6.90
2018-09-17T00:23:57.861Z,6.20
2018-09-17T00:27:02.795Z,5.73
2018-09-17T00:30:07.777Z,5.17
2018-09-17T00:33:12.720Z,4.97
2018-09-17T00:36:17.661Z,5.60
2018-09-17T00:39:22.609Z,5.93
2018-09-17T00:42:27.541Z,5.47
2018-09-17T00:45:32.506Z,5.73
2018-09-17T00:48:37.493Z,5.70
2018-09-17T00:51:42.451Z,6.20
2018-09-17T00:54:47.401Z,6.20
2018-09-17T00:57:52.504Z,5.23
2018-09-17T01:00:57.393Z,6.20
2018-09-17T01:04:02.337Z,6.93
2018-09-17T01:07:07.339Z,7.80
2018-09-17T01:10:12.293Z,5.67
2018-09-17T01:13:17.265Z,5.17
2018-09-17T01:16:22.243Z,5.93
2018-09-17T01:19:27.176Z,5.60
2018-09-17T01:22:32.160Z,6.63
2018-09-17T01:25:37.096Z,5.60
2018-09-17T01:28:42.043Z,6.70
2018-09-17T01:31:46.987Z,5.47
2018-09-17T01:34:51.953Z,6.23
2018-09-17T01:37:56.921Z,6.03
2018-09-17T01:41:01.909Z,7.33
2018-09-17T01:44:07.146Z,6.30
2018-09-17T01:47:12.113Z,5.83
2018-09-17T01:50:17.061Z,5.90
2018-09-17T01:53:21.998Z,7.20
2018-09-17T01:56:26.928Z,5.63
2018-09-17T01:59:31.869Z,6.87
2018-09-17T02:02:36.873Z,5.37
2018-09-17T02:05:41.830Z,6.67
2018-09-17T02:08:46.820Z,5.73
2018-09-17T02:11:51.754Z,6.37
2018-09-17T02:14:56.688Z,6.40
2018-09-17T02:18:01.637Z,5.93
2018-09-17T02:21:06.705Z,5.70
2018-09-17T02:24:11.685Z,6.33
2018-09-17T02:27:16.644Z,5.77
2018-09-17T02:30:21.587Z,6.93
2018-09-17T02:33:26.517Z,6.17
2018-09-17T02:36:31.497Z,6.40
2018-09-17T02:39:36.453Z,8.23
2018-09-17T02:42:41.413Z,6.90
2018-09-17T02:45:46.366Z,5.53
2018-09-17T02:48:51.306Z,5.67
2018-09-17T02:51:56.266Z,6.10
2018-09-17T02:55:01.202Z,5.87
2018-09-17T02:58:06.150Z,6.00
2018-09-17T03:01:11.109Z,6.37
2018-09-17T03:04:16.068Z,6.37
2018-09-17T03:07:21.025Z,6.40
2018-09-17T03:10:25.978Z,7.63
2018-09-17T03:13:30.904Z,6.13
2018-09-17T03:16:46.201Z,6.23
2018-09-17T03:19:51.202Z,5.80
2018-09-17T03:22:56.161Z,6.37
2018-09-17T03:26:01.253Z,5.93
2018-09-17T03:29:06.197Z,7.97
2018-09-17T03:32:11.141Z,7.93
2018-09-17T03:35:16.082Z,5.60
2018-09-17T03:38:33.478Z,5.30
2018-09-17T03:41:38.417Z,6.40
2018-09-17T03:44:43.352Z,6.13
2018-09-17T03:47:48.333Z,7.10
2018-09-17T03:50:53.289Z,6.20
2018-09-17T03:53:58.217Z,9.97
2018-09-17T03:57:03.174Z,6.40
2018-09-17T04:00:08.142Z,6.03
2018-09-17T04:03:13.072Z,6.00
2018-09-17T04:06:18.053Z,5.70
2018-09-17T04:09:22.978Z,5.70
2018-09-17T04:12:27.923Z,6.10
2018-09-17T04:15:32.857Z,6.63
2018-09-17T04:18:37.817Z,7.57
2018-09-17T04:21:42.753Z,6.20
2018-09-17T04:24:47.683Z,6.57
2018-09-17T04:27:52.637Z,6.37
2018-09-17T04:30:57.692Z,6.67
2018-09-17T04:34:02.625Z,6.57
2018-09-17T04:37:07.568Z,6.57
2018-09-17T04:40:12.538Z,6.70
2018-09-17T04:43:17.466Z,6.60
2018-09-17T04:46:22.391Z,6.57
2018-09-17T04:49:27.329Z,6.83
2018-09-17T04:52:32.538Z,5.63
2018-09-17T04:55:37.494Z,6.77
2018-09-17T04:58:42.461Z,6.50
2018-09-17T05:01:47.404Z,6.60
2018-09-17T05:04:52.341Z,6.87
2018-09-17T05:07:57.431Z,6.33
2018-09-17T05:11:02.360Z,7.47
2018-09-17T05:14:07.299Z,6.80
2018-09-17T05:17:12.259Z,6.63
2018-09-17T05:20:17.204Z,7.23
2018-09-17T05:23:22.141Z,9.20
2018-09-17T05:26:28.075Z,8.50
2018-09-17T05:29:33.023Z,10.63
2018-09-17T05:32:38.005Z,6.97
2018-09-17T05:35:42.949Z,6.90
2018-09-17T05:38:48.006Z,8.50
2018-09-17T05:41:52.961Z,10.00
2018-09-17T05:44:57.906Z,7.10
2018-09-17T05:48:02.863Z,9.33
2018-09-17T05:51:07.793Z,7.50
2018-09-17T05:54:12.725Z,7.27
2018-09-17T05:57:17.673Z,7.87
2018-09-17T06:00:22.677Z,11.53
2018-09-17T06:03:27.604Z,7.87
2018-09-17T06:06:32.573Z,11.17
2018-09-17T06:09:37.561Z,14.00
2018-09-17T06:12:44.025Z,7.83
2018-09-17T06:15:48.942Z,11.57
2018-09-17T06:18:53.909Z,10.70
2018-09-17T06:21:58.854Z,8.13
2018-09-17T06:25:04.462Z,8.63
2018-09-17T06:28:09.437Z,10.70
2018-09-17T06:31:14.364Z,10.43
2018-09-17T06:34:19.334Z,9.17
2018-09-17T06:37:24.271Z,13.77
2018-09-17T06:40:29.208Z,9.70
2018-09-17T06:43:34.149Z,7.53
2018-09-17T06:46:39.083Z,9.03
2018-09-17T06:49:44.024Z,10.83
2018-09-17T06:52:49.037Z,13.27
2018-09-17T06:55:53.977Z,12.90
2018-09-17T06:58:58.963Z,19.23
2018-09-17T07:02:03.984Z,20.33
2018-09-17T07:05:09.296Z,15.43
2018-09-17T07:08:14.307Z,30.13
2018-09-17T07:11:19.228Z,20.60
2018-09-17T07:14:25.120Z,20.70
2018-09-17T07:17:30.082Z,15.57
2018-09-17T07:20:35.033Z,19.17
2018-09-17T07:23:40.030Z,20.77
2018-09-17T07:26:44.990Z,25.97
2018-09-17T07:29:50.102Z,28.73
2018-09-17T07:32:55.065Z,53.00
2018-09-17T07:35:59.996Z,28.17
2018-09-17T07:39:07.700Z,25.93
2018-09-17T07:42:12.673Z,20.37
2018-09-17T07:45:17.601Z,30.93
2018-09-17T07:48:22.528Z,23.60
2018-09-17T07:51:27.462Z,23.90
2018-09-17T07:54:32.413Z,27.70
2018-09-17T07:57:37.408Z,21.20
2018-09-17T08:00:42.384Z,20.73
2018-09-17T08:03:47.856Z,16.53
2018-09-17T08:06:52.809Z,12.63
2018-09-17T08:09:57.772Z,18.50
2018-09-17T08:13:02.726Z,16.40
2018-09-17T08:16:07.715Z,10.90
2018-09-17T08:19:12.838Z,10.93
2018-09-17T08:22:17.826Z,10.93
2018-09-17T08:25:22.885Z,13.10
2018-09-17T08:28:27.952Z,8.50
2018-09-17T08:31:36.454Z,5.53
2018-09-17T08:34:51.918Z,4.57
2018-09-17T08:37:56.870Z,8.53
2018-09-17T08:41:07.244Z,5.87
2018-09-17T08:44:17.405Z,5.17
2018-09-17T08:47:22.949Z,7.60
2018-09-17T08:50:31.347Z,4.83
2018-09-17T08:53:36.685Z,5.83
2018-09-17T08:56:45.074Z,4.53
2018-09-17T08:59:55.817Z,4.70
2018-09-17T09:03:06.570Z,4.47
2018-09-17T09:06:18.465Z,5.17
2018-09-17T09:09:23.415Z,4.63
2018-09-17T09:12:34.578Z,5.93
2018-09-17T09:15:40.394Z,6.63
2018-09-17T09:18:45.380Z,5.70
2018-09-17T09:21:50.347Z,9.07
2018-09-17T09:24:55.323Z,9.93
2018-09-17T09:28:00.287Z,14.00
2018-09-17T09:31:06.254Z,5.90
2018-09-17T09:34:11.346Z,7.70
2018-09-17T09:37:24.449Z,6.30
2018-09-17T09:40:29.791Z,6.20
2018-09-17T09:43:35.618Z,6.50
2018-09-17T09:46:41.761Z,6.07
2018-09-17T09:49:46.737Z,7.50
2018-09-17T09:52:55.486Z,6.50
2018-09-17T09:56:13.498Z,5.43
2018-09-17T10:03:01.419Z,4.97
2018-09-17T10:06:06.401Z,8.80
2018-09-17T10:09:17.069Z,4.53
2018-09-17T10:12:27.777Z,5.33
2018-09-17T10:15:39.226Z,5.10
2018-09-17T10:18:49.885Z,7.40
2018-09-17T10:21:54.867Z,6.03
2018-09-17T10:28:39.979Z,6.20
2018-09-17T10:31:46.106Z,5.77
2018-09-17T10:34:51.053Z,7.93
2018-09-17T10:37:56.045Z,5.10
2018-09-17T10:41:00.990Z,4.73
2018-09-17T10:44:06.126Z,3.50
2018-09-17T10:47:11.082Z,3.57
2018-09-17T10:50:16.025Z,7.43
2018-09-17T10:53:20.969Z,5.10
2018-09-17T10:56:25.960Z,4.93
2018-09-17T10:59:30.917Z,6.33
2018-09-17T11:02:35.869Z,3.63
2018-09-17T11:05:40.794Z,4.87
2018-09-17T11:08:45.752Z,3.93
2018-09-17T11:11:50.705Z,3.47
2018-09-17T11:14:55.624Z,5.03
2018-09-17T11:18:00.593Z,5.37
2018-09-17T11:21:05.577Z,3.73
2018-09-17T11:24:10.537Z,3.37
2018-09-17T11:27:15.493Z,5.57
2018-09-17T11:30:20.410Z,8.23
2018-09-17T11:33:25.337Z,3.50
2018-09-17T11:36:30.272Z,2.50
2018-09-17T11:39:35.253Z,1.80
2018-09-17T11:42:40.194Z,2.43
2018-09-17T11:45:45.131Z,3.10
2018-09-17T11:48:50.077Z,18.60
2018-09-17T11:51:55.029Z,2.80
2018-09-17T11:54:59.964Z,2.77
2018-09-17T11:58:04.990Z,15.00
2018-09-17T12:01:15.708Z,2.20
2018-09-17T12:04:27.795Z,2.40
2018-09-17T12:07:38.847Z,2.33
2018-09-17T12:10:44.572Z,4.10
2018-09-17T12:13:50.682Z,5.17
2018-09-17T12:16:56.140Z,2.57
2018-09-17T12:20:02.647Z,3.00
2018-09-17T12:23:09.358Z,2.03
2018-09-17T12:26:14.344Z,2.30
2018-09-17T12:29:19.289Z,2.40
2018-09-17T12:32:24.241Z,1.80
2018-09-17T12:35:29.202Z,7.57
2018-09-17T12:38:34.603Z,3.43
2018-09-17T12:41:39.709Z,10.43
2018-09-17T12:44:44.717Z,2.53
2018-09-17T12:47:50.069Z,2.60
2018-09-17T12:50:55.032Z,3.07
2018-09-17T12:54:00.053Z,2.77
2018-09-17T12:57:05.325Z,2.47
2018-09-17T13:00:10.709Z,2.47
2018-09-17T13:03:15.918Z,3.20
2018-09-17T13:06:22.862Z,5.53
2018-09-17T13:09:29.127Z,2.67
2018-09-17T13:12:35.920Z,4.60
2018-09-17T13:15:48.088Z,2.30
2018-09-17T13:18:54.411Z,3.47
2018-09-17T13:22:01.086Z,4.43
2018-09-17T13:25:07.494Z,21.60
2018-09-17T13:28:12.898Z,2.40
2018-09-17T13:31:18.132Z,2.13
2018-09-17T13:34:23.149Z,3.17
2018-09-17T13:37:28.517Z,2.40
2018-09-17T13:40:35.293Z,5.53
2018-09-17T13:43:40.638Z,6.10
2018-09-17T13:46:46.013Z,1.97
2018-09-17T13:49:51.451Z,5.47
2018-09-17T13:52:56.376Z,3.80
2018-09-17T13:56:01.494Z,1.90
2018-09-17T13:59:06.478Z,4.27
2018-09-17T14:02:11.430Z,3.00
2018-09-17T14:05:16.557Z,5.30
2018-09-17T14:08:21.482Z,2.97
2018-09-17T14:11:26.441Z,3.93
2018-09-17T14:14:31.401Z,3.83
2018-09-17T14:17:36.359Z,4.57
2018-09-17T14:20:41.295Z,4.10
2018-09-17T14:23:46.269Z,4.37
2018-09-17T14:26:51.229Z,4.53
2018-09-17T14:29:56.249Z,4.03
2018-09-17T14:33:07.034Z,4.43
2018-09-17T14:36:12.009Z,4.23
2018-09-17T14:39:16.951Z,3.13
2018-09-17T14:42:21.921Z,5.43
2018-09-17T14:45:26.889Z,3.40
2018-09-17T14:48:31.840Z,3.67
2018-09-17T14:51:36.760Z,4.73
2018-09-17T14:54:41.795Z,6.00
2018-09-17T14:57:46.896Z,4.27
2018-09-17T15:00:51.844Z,3.33
2018-09-17T15:03:57.199Z,5.67
2018-09-17T15:07:02.526Z,5.07
2018-09-17T15:10:07.775Z,3.63
2018-09-17T15:13:12.751Z,3.10
2018-09-17T15:16:18.012Z,7.90
2018-09-17T15:19:23.351Z,5.33
2018-09-17T15:22:28.421Z,6.43
2018-09-17T15:25:33.913Z,4.00
2018-09-17T15:28:38.949Z,3.57
2018-09-17T15:31:44.365Z,3.43
2018-09-17T15:34:49.701Z,4.70
2018-09-17T15:37:55.171Z,7.13
2018-09-17T15:41:00.285Z,3.63
2018-09-17T15:44:05.231Z,5.77
2018-09-17T15:47:10.205Z,4.83
2018-09-17T15:50:15.346Z,5.37
2018-09-17T15:53:20.254Z,3.93
2018-09-17T15:56:25.234Z,3.30
2018-09-17T15:59:30.234Z,4.07
2018-09-17T16:02:35.299Z,6.70
2018-09-17T16:05:40.202Z,5.40
2018-09-17T16:08:45.188Z,5.73
2018-09-17T16:11:50.215Z,3.27
2018-09-17T16:14:55.150Z,3.17
2018-09-17T16:21:28.432Z,6.20
2018-09-17T16:24:34.258Z,4.60
2018-09-17T16:27:39.309Z,4.37
2018-09-17T16:30:44.381Z,4.17
2018-09-17T16:33:49.685Z,4.10
2018-09-17T16:36:55.023Z,5.33
2018-09-17T16:40:00.785Z,4.30
2018-09-17T16:43:05.884Z,4.40
2018-09-17T16:46:11.593Z,4.93
2018-09-17T16:49:17.117Z,7.20
2018-09-17T16:52:22.691Z,5.23
2018-09-17T16:55:27.709Z,5.80
2018-09-17T16:58:33.045Z,4.80
2018-09-17T17:01:38.013Z,4.50
2018-09-17T17:04:43.320Z,5.20
2018-09-17T17:07:48.294Z,9.53
2018-09-17T17:10:53.523Z,9.57
2018-09-17T17:13:59.073Z,9.70
2018-09-17T17:17:04.062Z,9.33
2018-09-17T17:20:09.073Z,11.50
2018-09-17T17:23:14.494Z,6.77
2018-09-17T17:26:19.921Z,7.77
2018-09-17T17:29:25.180Z,5.63
2018-09-17T17:32:30.296Z,6.13
2018-09-17T17:35:35.953Z,9.00
2018-09-17T17:38:40.977Z,18.27
2018-09-17T17:41:46.029Z,11.40
2018-09-17T17:44:51.002Z,11.93
2018-09-17T17:47:55.952Z,10.23
2018-09-17T17:51:00.913Z,12.97
2018-09-17T17:54:05.946Z,14.20
2018-09-17T17:57:10.916Z,11.00
2018-09-17T18:00:15.906Z,5.60
2018-09-17T18:03:20.901Z,5.87
2018-09-17T18:06:25.969Z,4.17
2018-09-17T18:09:31.111Z,7.03
2018-09-17T18:12:36.045Z,7.43
2018-09-17T18:15:41.039Z,3.83
2018-09-17T18:18:46.022Z,6.73
2018-09-17T18:21:51.157Z,9.00
2018-09-17T18:24:56.173Z,7.40
2018-09-17T18:28:01.193Z,4.57
2018-09-17T18:31:06.212Z,6.87
2018-09-17T18:34:11.197Z,7.17
2018-09-17T18:37:16.184Z,5.50
2018-09-17T18:40:21.185Z,5.00
2018-09-17T18:43:26.169Z,8.43
2018-09-17T18:46:31.194Z,5.57
2018-09-17T18:49:36.267Z,4.97
2018-09-17T18:52:41.253Z,5.70
2018-09-17T18:55:46.266Z,5.17
2018-09-17T18:58:51.421Z,10.70
2018-09-17T19:01:56.457Z,6.43
2018-09-17T19:05:01.487Z,5.37
2018-09-17T19:08:06.473Z,8.37
2018-09-17T19:11:11.493Z,9.87
2018-09-17T19:14:22.354Z,8.77
2018-09-17T19:17:33.127Z,13.67
2018-09-17T19:20:38.335Z,10.40
2018-09-17T19:23:49.082Z,15.03
2018-09-17T19:26:54.008Z,12.67
2018-09-17T19:29:59.157Z,11.73
2018-09-17T19:33:04.245Z,13.50
2018-09-17T19:36:09.502Z,14.07
2018-09-17T19:39:20.159Z,14.80
2018-09-17T19:42:32.351Z,15.90
2018-09-17T19:45:42.930Z,12.80
2018-09-17T19:48:48.444Z,12.67
2018-09-17T19:51:59.264Z,17.30
2018-09-17T19:55:04.273Z,11.90
2018-09-17T19:58:15.661Z,14.60
2018-09-17T20:01:20.777Z,24.37
2018-09-17T20:04:31.473Z,16.27
2018-09-17T20:07:36.831Z,17.67
2018-09-17T20:10:41.801Z,15.63
2018-09-17T20:13:46.782Z,13.20
2018-09-17T20:16:51.749Z,12.53
2018-09-17T20:19:56.714Z,10.80
2018-09-17T20:23:01.943Z,13.67
2018-09-17T20:26:06.977Z,13.83
2018-09-17T20:29:11.921Z,14.43
2018-09-17T20:32:16.869Z,12.13
2018-09-17T20:35:22.644Z,13.50
2018-09-17T20:38:27.869Z,13.33
2018-09-17T20:41:32.822Z,9.67
2018-09-17T20:44:37.820Z,13.67
2018-09-17T20:47:42.797Z,12.30
2018-09-17T20:50:47.930Z,10.60
2018-09-17T20:53:52.930Z,11.87
2018-09-17T20:56:57.963Z,8.27
2018-09-17T21:00:03.006Z,13.77
2018-09-17T21:03:08.101Z,14.17
2018-09-17T21:06:13.145Z,9.90
2018-09-17T21:09:18.184Z,7.90
2018-09-17T21:12:23.323Z,9.10
2018-09-17T21:15:28.182Z,8.60
2018-09-17T21:18:33.227Z,6.43
2018-09-17T21:21:38.159Z,7.00
2018-09-17T21:24:43.158Z,7.63
2018-09-17T21:27:48.105Z,7.00
2018-09-17T21:30:53.134Z,7.17
2018-09-17T21:33:58.056Z,7.43
2018-09-17T21:37:03.061Z,6.10
2018-09-17T21:40:07.965Z,8.23
2018-09-17T21:43:12.998Z,6.73
2018-09-17T21:46:17.874Z,6.57
2018-09-17T21:49:22.829Z,4.60
2018-09-17T21:52:27.841Z,6.67
2018-09-17T21:55:32.782Z,6.90
2018-09-17T21:58:37.822Z,6.80
2018-09-17T22:01:42.808Z,7.33
2018-09-17T22:04:47.802Z,5.03
2018-09-17T22:07:52.813Z,7.40
2018-09-17T22:10:57.806Z,6.70
2018-09-17T22:14:02.838Z,7.43
2018-09-17T22:17:07.808Z,5.20
2018-09-17T22:20:12.797Z,5.47
2018-09-17T22:23:17.791Z,6.33
2018-09-17T22:26:22.775Z,5.93
2018-09-17T22:29:27.740Z,6.80
2018-09-17T22:32:32.709Z,5.07
2018-09-17T22:35:37.692Z,6.87
2018-09-17T22:38:42.701Z,5.10
2018-09-17T22:41:47.679Z,4.90
2018-09-17T22:44:52.670Z,4.80
2018-09-17T22:47:57.658Z,6.73
2018-09-17T22:51:02.636Z,5.80
2018-09-17T22:54:07.621Z,7.20
2018-09-17T22:57:12.595Z,5.73
2018-09-17T23:00:17.597Z,5.37
2018-09-17T23:03:22.569Z,5.27
2018-09-17T23:06:27.533Z,5.17
2018-09-17T23:09:32.517Z,5.87
2018-09-17T23:12:37.509Z,7.93
2018-09-17T23:15:42.493Z,5.27
2018-09-17T23:18:47.511Z,6.50
2018-09-17T23:21:52.475Z,5.10
2018-09-17T23:24:57.433Z,4.30
2018-09-17T23:28:02.457Z,4.87
2018-09-17T23:31:07.438Z,5.03
2018-09-17T23:34:12.409Z,5.63
2018-09-17T23:37:17.637Z,4.30
2018-09-17T23:40:22.629Z,5.00
2018-09-17T23:43:27.653Z,4.60
2018-09-17T23:46:32.654Z,5.30
2018-09-17T23:49:37.605Z,6.80
2018-09-17T23:52:42.577Z,5.10
2018-09-17T23:55:47.565Z,4.47
2018-09-17T23:58:52.532Z,5.37
